Trident, Montana
Current Conditions -  °F | °C
As of 3:56 AM on Saturday 22 Nov 2014 (Local Time) from KBZN Reporting Station
Overcast Overcast  
Wind Chill: 32°   Ceiling: 7000
Heat Index: 36°   Visibility: 10mi
Dew Point: 29°   Wind: 5mph
Humidity: 76%   Direction: 280°W
Pressure: 29.53"   Gusts: NA
Location:  45.8877°N, 111.462°W
Report Text: KBZN 221056Z AUTO 28004KT 10SM OVC070 02/M02 A2953 RMK AO2 SLP010 T00221017
Loading
Personal Weather Stations






























Interactive Weather Map New forecast layout! Learn more

10-Day Weather Forecast

Advertisements
Track Severe Weather on mobile